Terminal Aerodrome Forecast
Issued by NWS Cleveland, OH

Home | Current Version | Previous Version | Text Only | Print | Product List | Glossary On
Versions: 1 2 3 4 5 6 7 8 9 10 11 12 13 14 15 16 17 18 19 20 21 22 23 24 25 26 27
000
FTUS41 KCLE 230600 AAA
TAFTOL
TAF AMD
KTOL 230651Z 2307/2406 06002KT 2SM BR SCT008
      TEMPO 2307/2310 1SM BR BKN008
     FM231000 06002KT 1SM BR BKN008
     FM231400 06004KT P6SM BKN015
     FM231700 06006KT P6SM BKN035
     FM240000 06004KT P6SM SCT040
     FM240500 06003KT 5SM BR FEW040=

USA.gov is the U.S. government's official web portal to all federal, state and local government web resources and services.